sensor_id;sensor_type;location;lat;lon;timestamp;temperature;humidity
20463;DHT22;10390;53.566;9.980;2023-06-22T00:00:52;31.20;1.00
20463;DHT22;10390;53.566;9.980;2023-06-22T00:03:19;31.20;1.00
20463;DHT22;10390;53.566;9.980;2023-06-22T00:05:45;31.20;1.00
20463;DHT22;10390;53.566;9.980;2023-06-22T00:08:11;31.20;1.00
20463;DHT22;10390;53.566;9.980;2023-06-22T00:10:36;31.20;1.00
20463;DHT22;10390;53.566;9.980;2023-06-22T00:13:02;31.20;1.00
20463;DHT22;10390;53.566;9.980;2023-06-22T00:15:28;31.20;1.00
20463;DHT22;10390;53.566;9.980;2023-06-22T00:17:54;31.20;1.00
20463;DHT22;10390;53.566;9.980;2023-06-22T00:20:19;31.20;1.00
20463;DHT22;10390;53.566;9.980;2023-06-22T00:22:45;31.30;1.00
20463;DHT22;10390;53.566;9.980;2023-06-22T00:25:11;31.30;1.00
20463;DHT22;10390;53.566;9.980;2023-06-22T00:27:37;31.20;1.00
20463;DHT22;10390;53.566;9.980;2023-06-22T00:30:03;31.30;1.00
20463;DHT22;10390;53.566;9.980;2023-06-22T00:32:29;31.30;1.00
20463;DHT22;10390;53.566;9.980;2023-06-22T00:34:55;31.20;1.00
20463;DHT22;10390;53.566;9.980;2023-06-22T00:37:20;31.20;1.00
20463;DHT22;10390;53.566;9.980;2023-06-22T00:39:51;31.20;1.00
20463;DHT22;10390;53.566;9.980;2023-06-22T00:42:17;31.20;1.00
20463;DHT22;10390;53.566;9.980;2023-06-22T00:44:43;31.20;1.00
20463;DHT22;10390;53.566;9.980;2023-06-22T00:47:11;31.20;1.00
20463;DHT22;10390;53.566;9.980;2023-06-22T00:49:38;31.20;1.00
20463;DHT22;10390;53.566;9.980;2023-06-22T00:52:04;31.20;1.00
20463;DHT22;10390;53.566;9.980;2023-06-22T00:54:35;31.20;1.00
20463;DHT22;10390;53.566;9.980;2023-06-22T00:57:01;31.20;1.00
20463;DHT22;10390;53.566;9.980;2023-06-22T00:59:27;31.20;1.00
20463;DHT22;10390;53.566;9.980;2023-06-22T01:01:54;31.20;1.00
20463;DHT22;10390;53.566;9.980;2023-06-22T01:04:20;31.20;1.00
20463;DHT22;10390;53.566;9.980;2023-06-22T01:06:57;31.20;1.00
20463;DHT22;10390;53.566;9.980;2023-06-22T01:09:39;31.20;1.00
20463;DHT22;10390;53.566;9.980;2023-06-22T01:12:10;31.20;1.00
20463;DHT22;10390;53.566;9.980;2023-06-22T01:14:49;31.20;1.00
20463;DHT22;10390;53.566;9.980;2023-06-22T01:17:19;31.20;1.00
20463;DHT22;10390;53.566;9.980;2023-06-22T01:19:49;31.20;1.00
20463;DHT22;10390;53.566;9.980;2023-06-22T01:22:23;31.20;1.00
20463;DHT22;10390;53.566;9.980;2023-06-22T01:27:53;31.20;1.00
20463;DHT22;10390;53.566;9.980;2023-06-22T01:30:22;31.10;1.00
20463;DHT22;10390;53.566;9.980;2023-06-22T01:32:53;31.10;1.00
20463;DHT22;10390;53.566;9.980;2023-06-22T01:35:20;31.10;1.00
20463;DHT22;10390;53.566;9.980;2023-06-22T01:37:46;31.10;1.00
20463;DHT22;10390;53.566;9.980;2023-06-22T01:40:13;31.10;1.00
20463;DHT22;10390;53.566;9.980;2023-06-22T01:42:40;31.20;1.00
20463;DHT22;10390;53.566;9.980;2023-06-22T01:45:07;31.20;1.00
20463;DHT22;10390;53.566;9.980;2023-06-22T01:47:33;31.20;1.00
20463;DHT22;10390;53.566;9.980;2023-06-22T01:49:59;31.10;1.00
20463;DHT22;10390;53.566;9.980;2023-06-22T01:52:25;31.20;1.00
20463;DHT22;10390;53.566;9.980;2023-06-22T01:54:51;31.20;1.00
20463;DHT22;10390;53.566;9.980;2023-06-22T01:57:16;31.10;1.00
20463;DHT22;10390;53.566;9.980;2023-06-22T01:59:57;31.10;1.00
20463;DHT22;10390;53.566;9.980;2023-06-22T02:02:24;31.10;1.00
20463;DHT22;10390;53.566;9.980;2023-06-22T02:04:59;31.10;1.00
20463;DHT22;10390;53.566;9.980;2023-06-22T02:07:32;31.10;1.00
20463;DHT22;10390;53.566;9.980;2023-06-22T02:09:59;31.20;1.00
20463;DHT22;10390;53.566;9.980;2023-06-22T02:12:28;31.20;1.00
20463;DHT22;10390;53.566;9.980;2023-06-22T02:14:55;31.10;1.00
20463;DHT22;10390;53.566;9.980;2023-06-22T02:17:21;31.10;1.00
20463;DHT22;10390;53.566;9.980;2023-06-22T02:19:46;31.10;1.00
20463;DHT22;10390;53.566;9.980;2023-06-22T02:22:12;31.10;1.00
20463;DHT22;10390;53.566;9.980;2023-06-22T02:24:40;31.00;1.00
20463;DHT22;10390;53.566;9.980;2023-06-22T02:27:06;31.10;1.00
20463;DHT22;10390;53.566;9.980;2023-06-22T02:29:32;31.00;1.00
20463;DHT22;10390;53.566;9.980;2023-06-22T02:31:58;31.00;1.00
20463;DHT22;10390;53.566;9.980;2023-06-22T02:34:24;31.00;1.00
20463;DHT22;10390;53.566;9.980;2023-06-22T02:36:50;31.00;1.00
20463;DHT22;10390;53.566;9.980;2023-06-22T02:39:23;30.90;1.00
20463;DHT22;10390;53.566;9.980;2023-06-22T02:41:50;31.00;1.00
20463;DHT22;10390;53.566;9.980;2023-06-22T02:44:17;31.00;1.00
20463;DHT22;10390;53.566;9.980;2023-06-22T02:46:43;30.90;1.00
20463;DHT22;10390;53.566;9.980;2023-06-22T02:49:10;30.90;1.00
20463;DHT22;10390;53.566;9.980;2023-06-22T02:51:37;30.90;1.00
20463;DHT22;10390;53.566;9.980;2023-06-22T02:54:05;30.90;1.00
20463;DHT22;10390;53.566;9.980;2023-06-22T02:56:31;31.00;1.00
20463;DHT22;10390;53.566;9.980;2023-06-22T02:58:57;31.00;1.00
20463;DHT22;10390;53.566;9.980;2023-06-22T03:01:30;31.00;1.00
20463;DHT22;10390;53.566;9.980;2023-06-22T03:03:58;31.00;1.00
20463;DHT22;10390;53.566;9.980;2023-06-22T03:06:24;31.00;1.00
20463;DHT22;10390;53.566;9.980;2023-06-22T03:09:04;30.90;1.00
20463;DHT22;10390;53.566;9.980;2023-06-22T03:11:31;30.90;1.00
20463;DHT22;10390;53.566;9.980;2023-06-22T03:13:57;30.90;1.00
20463;DHT22;10390;53.566;9.980;2023-06-22T03:16:22;31.00;1.00
20463;DHT22;10390;53.566;9.980;2023-06-22T03:18:48;31.00;1.00
20463;DHT22;10390;53.566;9.980;2023-06-22T03:21:14;31.00;1.00
20463;DHT22;10390;53.566;9.980;2023-06-22T03:23:41;30.90;1.00
20463;DHT22;10390;53.566;9.980;2023-06-22T03:26:08;30.90;1.00
20463;DHT22;10390;53.566;9.980;2023-06-22T03:28:33;30.90;1.00
20463;DHT22;10390;53.566;9.980;2023-06-22T03:30:59;30.90;1.00
20463;DHT22;10390;53.566;9.980;2023-06-22T03:33:25;30.90;1.00
20463;DHT22;10390;53.566;9.980;2023-06-22T03:35:53;30.90;1.00
20463;DHT22;10390;53.566;9.980;2023-06-22T03:38:22;30.90;1.00
20463;DHT22;10390;53.566;9.980;2023-06-22T03:40:55;30.90;1.00
20463;DHT22;10390;53.566;9.980;2023-06-22T03:43:39;30.90;1.00
20463;DHT22;10390;53.566;9.980;2023-06-22T03:46:05;30.90;1.00
20463;DHT22;10390;53.566;9.980;2023-06-22T03:48:30;30.90;1.00
20463;DHT22;10390;53.566;9.980;2023-06-22T03:50:59;30.90;1.00
20463;DHT22;10390;53.566;9.980;2023-06-22T03:53:34;30.90;1.00
20463;DHT22;10390;53.566;9.980;2023-06-22T03:56:02;30.90;1.00
20463;DHT22;10390;53.566;9.980;2023-06-22T03:58:30;30.80;1.00
20463;DHT22;10390;53.566;9.980;2023-06-22T04:01:01;30.90;1.00
20463;DHT22;10390;53.566;9.980;2023-06-22T04:03:27;30.90;1.00
20463;DHT22;10390;53.566;9.980;2023-06-22T04:05:56;30.90;1.00
20463;DHT22;10390;53.566;9.980;2023-06-22T04:08:24;30.90;1.00
20463;DHT22;10390;53.566;9.980;2023-06-22T04:10:50;30.90;1.00
20463;DHT22;10390;53.566;9.980;2023-06-22T04:13:18;30.90;1.00
20463;DHT22;10390;53.566;9.980;2023-06-22T04:15:48;30.90;1.00
20463;DHT22;10390;53.566;9.980;2023-06-22T04:18:19;30.90;1.00
20463;DHT22;10390;53.566;9.980;2023-06-22T04:20:45;30.90;1.00
20463;DHT22;10390;53.566;9.980;2023-06-22T04:23:12;30.90;1.00
20463;DHT22;10390;53.566;9.980;2023-06-22T04:25:41;30.90;1.00
20463;DHT22;10390;53.566;9.980;2023-06-22T04:28:14;30.90;1.00
20463;DHT22;10390;53.566;9.980;2023-06-22T04:30:45;30.90;1.00
20463;DHT22;10390;53.566;9.980;2023-06-22T04:33:20;30.90;1.00
20463;DHT22;10390;53.566;9.980;2023-06-22T04:35:45;30.90;1.00
20463;DHT22;10390;53.566;9.980;2023-06-22T04:38:31;30.90;1.00
20463;DHT22;10390;53.566;9.980;2023-06-22T04:41:00;30.90;1.00
20463;DHT22;10390;53.566;9.980;2023-06-22T04:43:30;30.90;1.00
20463;DHT22;10390;53.566;9.980;2023-06-22T04:46:01;30.80;1.00
20463;DHT22;10390;53.566;9.980;2023-06-22T04:48:37;30.80;1.00
20463;DHT22;10390;53.566;9.980;2023-06-22T04:51:05;30.80;1.00
20463;DHT22;10390;53.566;9.980;2023-06-22T04:53:31;30.80;1.00
20463;DHT22;10390;53.566;9.980;2023-06-22T04:56:08;30.80;1.00
20463;DHT22;10390;53.566;9.980;2023-06-22T04:58:38;30.80;1.00
20463;DHT22;10390;53.566;9.980;2023-06-22T05:01:07;30.80;1.00
20463;DHT22;10390;53.566;9.980;2023-06-22T05:03:36;30.70;1.00
20463;DHT22;10390;53.566;9.980;2023-06-22T05:06:04;30.70;1.00
20463;DHT22;10390;53.566;9.980;2023-06-22T05:08:42;30.70;1.00
20463;DHT22;10390;53.566;9.980;2023-06-22T05:11:14;30.70;1.00
20463;DHT22;10390;53.566;9.980;2023-06-22T05:13:43;30.70;1.00
20463;DHT22;10390;53.566;9.980;2023-06-22T05:16:24;30.60;1.00
20463;DHT22;10390;53.566;9.980;2023-06-22T05:18:55;30.60;1.00
20463;DHT22;10390;53.566;9.980;2023-06-22T05:21:26;30.60;1.00
20463;DHT22;10390;53.566;9.980;2023-06-22T05:23:53;30.60;1.00
20463;DHT22;10390;53.566;9.980;2023-06-22T05:26:27;30.60;1.00
20463;DHT22;10390;53.566;9.980;2023-06-22T05:28:53;30.50;1.00
20463;DHT22;10390;53.566;9.980;2023-06-22T05:31:22;30.60;1.00
20463;DHT22;10390;53.566;9.980;2023-06-22T05:33:50;30.60;1.00
20463;DHT22;10390;53.566;9.980;2023-06-22T05:36:27;30.60;1.00
20463;DHT22;10390;53.566;9.980;2023-06-22T05:39:11;30.50;1.00
20463;DHT22;10390;53.566;9.980;2023-06-22T05:41:51;30.50;1.00
20463;DHT22;10390;53.566;9.980;2023-06-22T05:44:22;30.50;1.00
20463;DHT22;10390;53.566;9.980;2023-06-22T05:46:50;30.50;1.00
20463;DHT22;10390;53.566;9.980;2023-06-22T05:49:16;30.50;1.00
20463;DHT22;10390;53.566;9.980;2023-06-22T05:51:54;30.50;1.00
20463;DHT22;10390;53.566;9.980;2023-06-22T05:54:40;30.50;1.00
20463;DHT22;10390;53.566;9.980;2023-06-22T05:57:13;30.50;1.00
20463;DHT22;10390;53.566;9.980;2023-06-22T05:59:41;30.60;1.00
20463;DHT22;10390;53.566;9.980;2023-06-22T06:02:12;30.50;1.00
20463;DHT22;10390;53.566;9.980;2023-06-22T06:04:38;30.60;1.00
20463;DHT22;10390;53.566;9.980;2023-06-22T06:07:10;30.60;1.00
20463;DHT22;10390;53.566;9.980;2023-06-22T06:09:38;30.60;1.00
20463;DHT22;10390;53.566;9.980;2023-06-22T06:12:04;30.60;1.00
20463;DHT22;10390;53.566;9.980;2023-06-22T06:14:30;30.60;1.00
20463;DHT22;10390;53.566;9.980;2023-06-22T06:16:55;30.60;1.00
20463;DHT22;10390;53.566;9.980;2023-06-22T06:19:21;30.60;1.00
20463;DHT22;10390;53.566;9.980;2023-06-22T06:21:47;30.70;1.00
20463;DHT22;10390;53.566;9.980;2023-06-22T06:24:12;30.70;1.00
20463;DHT22;10390;53.566;9.980;2023-06-22T06:26:38;30.70;1.00
20463;DHT22;10390;53.566;9.980;2023-06-22T06:29:04;30.80;1.00
20463;DHT22;10390;53.566;9.980;2023-06-22T06:31:30;30.80;1.00
20463;DHT22;10390;53.566;9.980;2023-06-22T06:33:55;30.90;1.00
20463;DHT22;10390;53.566;9.980;2023-06-22T06:36:21;30.90;1.00
20463;DHT22;10390;53.566;9.980;2023-06-22T06:38:47;30.90;1.00
20463;DHT22;10390;53.566;9.980;2023-06-22T06:41:16;31.00;1.00
20463;DHT22;10390;53.566;9.980;2023-06-22T06:43:42;31.00;1.00
20463;DHT22;10390;53.566;9.980;2023-06-22T06:46:10;31.00;1.00
20463;DHT22;10390;53.566;9.980;2023-06-22T06:48:36;31.10;1.00
20463;DHT22;10390;53.566;9.980;2023-06-22T06:51:02;31.10;1.00
20463;DHT22;10390;53.566;9.980;2023-06-22T06:53:28;31.10;1.00
20463;DHT22;10390;53.566;9.980;2023-06-22T06:55:54;31.10;1.00
20463;DHT22;10390;53.566;9.980;2023-06-22T06:58:20;31.10;1.00
20463;DHT22;10390;53.566;9.980;2023-06-22T07:00:45;31.10;1.00
20463;DHT22;10390;53.566;9.980;2023-06-22T07:03:11;31.20;1.00
20463;DHT22;10390;53.566;9.980;2023-06-22T07:05:37;31.10;1.00
20463;DHT22;10390;53.566;9.980;2023-06-22T07:08:03;31.20;1.00
20463;DHT22;10390;53.566;9.980;2023-06-22T07:10:29;31.20;1.00
20463;DHT22;10390;53.566;9.980;2023-06-22T07:12:54;31.20;1.00
20463;DHT22;10390;53.566;9.980;2023-06-22T07:15:20;31.20;1.00
20463;DHT22;10390;53.566;9.980;2023-06-22T07:17:46;31.30;1.00
20463;DHT22;10390;53.566;9.980;2023-06-22T07:20:12;31.30;1.00
20463;DHT22;10390;53.566;9.980;2023-06-22T07:22:39;31.30;1.00
20463;DHT22;10390;53.566;9.980;2023-06-22T07:25:05;31.30;1.00
20463;DHT22;10390;53.566;9.980;2023-06-22T07:27:36;31.40;1.00
20463;DHT22;10390;53.566;9.980;2023-06-22T07:30:04;31.40;1.00
20463;DHT22;10390;53.566;9.980;2023-06-22T07:32:29;31.40;1.00
20463;DHT22;10390;53.566;9.980;2023-06-22T07:34:55;31.50;1.00
20463;DHT22;10390;53.566;9.980;2023-06-22T07:37:21;31.50;1.00
20463;DHT22;10390;53.566;9.980;2023-06-22T07:39:47;31.60;1.00
20463;DHT22;10390;53.566;9.980;2023-06-22T07:42:12;31.50;1.00
20463;DHT22;10390;53.566;9.980;2023-06-22T07:44:38;31.60;1.00
20463;DHT22;10390;53.566;9.980;2023-06-22T07:47:03;31.60;1.00
20463;DHT22;10390;53.566;9.980;2023-06-22T07:49:29;31.70;1.00
20463;DHT22;10390;53.566;9.980;2023-06-22T07:51:55;31.70;1.00
20463;DHT22;10390;53.566;9.980;2023-06-22T07:54:20;31.70;1.00
20463;DHT22;10390;53.566;9.980;2023-06-22T07:56:46;31.70;1.00
20463;DHT22;10390;53.566;9.980;2023-06-22T07:59:12;31.80;1.00
20463;DHT22;10390;53.566;9.980;2023-06-22T08:01:38;31.70;1.00
20463;DHT22;10390;53.566;9.980;2023-06-22T08:04:03;31.80;1.00
20463;DHT22;10390;53.566;9.980;2023-06-22T08:06:31;31.80;1.00
20463;DHT22;10390;53.566;9.980;2023-06-22T08:08:56;31.80;1.00
20463;DHT22;10390;53.566;9.980;2023-06-22T08:11:23;31.80;1.00
20463;DHT22;10390;53.566;9.980;2023-06-22T08:13:50;31.90;1.00
20463;DHT22;10390;53.566;9.980;2023-06-22T08:16:16;31.90;1.00
20463;DHT22;10390;53.566;9.980;2023-06-22T08:18:41;31.90;1.00
20463;DHT22;10390;53.566;9.980;2023-06-22T08:21:07;31.90;1.00
20463;DHT22;10390;53.566;9.980;2023-06-22T08:23:33;31.90;1.00
20463;DHT22;10390;53.566;9.980;2023-06-22T08:25:58;31.90;1.00
20463;DHT22;10390;53.566;9.980;2023-06-22T08:28:24;31.90;1.00
20463;DHT22;10390;53.566;9.980;2023-06-22T08:30:49;32.00;1.00
20463;DHT22;10390;53.566;9.980;2023-06-22T08:33:15;31.90;1.00
20463;DHT22;10390;53.566;9.980;2023-06-22T08:35:41;32.00;1.00
20463;DHT22;10390;53.566;9.980;2023-06-22T08:38:07;32.00;1.00
20463;DHT22;10390;53.566;9.980;2023-06-22T08:40:33;32.00;1.00
20463;DHT22;10390;53.566;9.980;2023-06-22T08:42:58;32.00;1.00
20463;DHT22;10390;53.566;9.980;2023-06-22T08:45:24;32.10;1.00
20463;DHT22;10390;53.566;9.980;2023-06-22T08:47:51;32.10;1.00
20463;DHT22;10390;53.566;9.980;2023-06-22T08:50:16;32.10;1.00
20463;DHT22;10390;53.566;9.980;2023-06-22T08:52:42;32.20;1.00
20463;DHT22;10390;53.566;9.980;2023-06-22T08:55:08;32.20;1.00
20463;DHT22;10390;53.566;9.980;2023-06-22T08:57:34;32.20;1.00
20463;DHT22;10390;53.566;9.980;2023-06-22T09:00:03;32.20;1.00
20463;DHT22;10390;53.566;9.980;2023-06-22T09:02:30;32.30;1.00
20463;DHT22;10390;53.566;9.980;2023-06-22T09:05:03;32.30;1.00
20463;DHT22;10390;53.566;9.980;2023-06-22T09:07:28;32.30;1.00
20463;DHT22;10390;53.566;9.980;2023-06-22T09:09:55;32.30;1.00
20463;DHT22;10390;53.566;9.980;2023-06-22T09:12:21;32.30;1.00
20463;DHT22;10390;53.566;9.980;2023-06-22T09:14:51;32.30;1.00
20463;DHT22;10390;53.566;9.980;2023-06-22T09:17:17;32.40;1.00
20463;DHT22;10390;53.566;9.980;2023-06-22T09:19:49;32.40;1.00
20463;DHT22;10390;53.566;9.980;2023-06-22T09:22:14;32.40;1.00
20463;DHT22;10390;53.566;9.980;2023-06-22T09:24:40;32.40;1.00
20463;DHT22;10390;53.566;9.980;2023-06-22T09:27:06;32.40;1.00
20463;DHT22;10390;53.566;9.980;2023-06-22T09:29:31;32.40;1.00
20463;DHT22;10390;53.566;9.980;2023-06-22T09:31:59;32.50;1.00
20463;DHT22;10390;53.566;9.980;2023-06-22T09:34:25;32.50;1.00
20463;DHT22;10390;53.566;9.980;2023-06-22T09:36:50;32.50;1.00
20463;DHT22;10390;53.566;9.980;2023-06-22T09:39:18;32.50;1.00
20463;DHT22;10390;53.566;9.980;2023-06-22T09:41:43;32.50;1.00
20463;DHT22;10390;53.566;9.980;2023-06-22T09:44:09;32.50;1.00
20463;DHT22;10390;53.566;9.980;2023-06-22T09:46:35;32.50;1.00
20463;DHT22;10390;53.566;9.980;2023-06-22T09:49:00;32.50;1.00
20463;DHT22;10390;53.566;9.980;2023-06-22T09:51:26;32.60;1.00
20463;DHT22;10390;53.566;9.980;2023-06-22T09:53:53;32.60;1.00
20463;DHT22;10390;53.566;9.980;2023-06-22T09:56:22;32.60;1.00
20463;DHT22;10390;53.566;9.980;2023-06-22T09:58:48;32.60;1.00
20463;DHT22;10390;53.566;9.980;2023-06-22T10:01:15;32.60;1.00
20463;DHT22;10390;53.566;9.980;2023-06-22T10:03:41;32.60;1.00
20463;DHT22;10390;53.566;9.980;2023-06-22T10:06:07;32.60;1.00
20463;DHT22;10390;53.566;9.980;2023-06-22T10:08:34;32.60;1.00
20463;DHT22;10390;53.566;9.980;2023-06-22T10:11:00;32.60;1.00
20463;DHT22;10390;53.566;9.980;2023-06-22T10:13:25;32.60;1.00
20463;DHT22;10390;53.566;9.980;2023-06-22T10:15:51;32.70;1.00
20463;DHT22;10390;53.566;9.980;2023-06-22T10:18:20;32.60;1.00
20463;DHT22;10390;53.566;9.980;2023-06-22T10:20:48;32.60;1.00
20463;DHT22;10390;53.566;9.980;2023-06-22T10:23:18;32.70;1.00
20463;DHT22;10390;53.566;9.980;2023-06-22T10:25:43;32.70;1.00
20463;DHT22;10390;53.566;9.980;2023-06-22T10:28:09;32.70;1.00
20463;DHT22;10390;53.566;9.980;2023-06-22T10:30:35;32.70;1.00
20463;DHT22;10390;53.566;9.980;2023-06-22T10:33:00;32.70;1.00
20463;DHT22;10390;53.566;9.980;2023-06-22T10:35:26;32.70;1.00
20463;DHT22;10390;53.566;9.980;2023-06-22T10:37:52;32.70;1.00
20463;DHT22;10390;53.566;9.980;2023-06-22T10:40:19;32.70;1.00
20463;DHT22;10390;53.566;9.980;2023-06-22T10:42:45;32.70;1.00
20463;DHT22;10390;53.566;9.980;2023-06-22T10:45:11;32.70;1.00
20463;DHT22;10390;53.566;9.980;2023-06-22T10:47:37;32.80;1.00
20463;DHT22;10390;53.566;9.980;2023-06-22T10:50:03;32.70;1.00
20463;DHT22;10390;53.566;9.980;2023-06-22T10:52:29;32.80;1.00
20463;DHT22;10390;53.566;9.980;2023-06-22T10:54:55;32.80;1.00
20463;DHT22;10390;53.566;9.980;2023-06-22T10:57:21;32.70;1.00
20463;DHT22;10390;53.566;9.980;2023-06-22T10:59:47;32.70;1.00
20463;DHT22;10390;53.566;9.980;2023-06-22T11:02:12;32.80;1.00
20463;DHT22;10390;53.566;9.980;2023-06-22T11:04:38;32.80;1.00
20463;DHT22;10390;53.566;9.980;2023-06-22T11:07:04;32.70;1.00
20463;DHT22;10390;53.566;9.980;2023-06-22T11:09:30;32.80;1.00
20463;DHT22;10390;53.566;9.980;2023-06-22T11:11:56;32.80;1.00
20463;DHT22;10390;53.566;9.980;2023-06-22T11:14:21;32.80;1.00
20463;DHT22;10390;53.566;9.980;2023-06-22T11:16:48;32.80;1.00
20463;DHT22;10390;53.566;9.980;2023-06-22T11:19:13;32.80;1.00
20463;DHT22;10390;53.566;9.980;2023-06-22T11:21:39;32.80;1.00
20463;DHT22;10390;53.566;9.980;2023-06-22T11:24:05;32.80;1.00
20463;DHT22;10390;53.566;9.980;2023-06-22T11:26:31;32.80;1.00
20463;DHT22;10390;53.566;9.980;2023-06-22T11:28:57;32.80;1.00
20463;DHT22;10390;53.566;9.980;2023-06-22T11:31:23;32.80;1.00
20463;DHT22;10390;53.566;9.980;2023-06-22T11:33:49;32.80;1.00
20463;DHT22;10390;53.566;9.980;2023-06-22T11:36:14;32.80;1.00
20463;DHT22;10390;53.566;9.980;2023-06-22T11:38:40;32.80;1.00
20463;DHT22;10390;53.566;9.980;2023-06-22T11:41:06;32.80;1.00
20463;DHT22;10390;53.566;9.980;2023-06-22T11:43:33;32.80;1.00
20463;DHT22;10390;53.566;9.980;2023-06-22T11:45:59;32.80;1.00
20463;DHT22;10390;53.566;9.980;2023-06-22T11:48:25;32.80;1.00
20463;DHT22;10390;53.566;9.980;2023-06-22T11:50:51;32.80;1.00
20463;DHT22;10390;53.566;9.980;2023-06-22T11:53:16;32.80;1.00
20463;DHT22;10390;53.566;9.980;2023-06-22T11:55:44;32.80;1.00
20463;DHT22;10390;53.566;9.980;2023-06-22T11:58:09;32.80;1.00
20463;DHT22;10390;53.566;9.980;2023-06-22T12:00:37;32.80;1.00
20463;DHT22;10390;53.566;9.980;2023-06-22T12:03:02;32.80;1.00
20463;DHT22;10390;53.566;9.980;2023-06-22T12:05:28;32.80;1.00
20463;DHT22;10390;53.566;9.980;2023-06-22T12:07:54;32.70;1.00
20463;DHT22;10390;53.566;9.980;2023-06-22T12:10:24;32.80;1.00
20463;DHT22;10390;53.566;9.980;2023-06-22T12:12:50;32.80;1.00
20463;DHT22;10390;53.566;9.980;2023-06-22T12:15:16;32.70;1.00
20463;DHT22;10390;53.566;9.980;2023-06-22T12:17:41;32.70;1.00
20463;DHT22;10390;53.566;9.980;2023-06-22T12:20:07;32.70;1.00
20463;DHT22;10390;53.566;9.980;2023-06-22T12:22:34;32.70;1.00
20463;DHT22;10390;53.566;9.980;2023-06-22T12:25:00;32.70;1.00
20463;DHT22;10390;53.566;9.980;2023-06-22T12:27:26;32.70;1.00
20463;DHT22;10390;53.566;9.980;2023-06-22T12:29:52;32.70;1.00
20463;DHT22;10390;53.566;9.980;2023-06-22T12:32:17;32.70;1.00
20463;DHT22;10390;53.566;9.980;2023-06-22T12:34:43;32.70;1.00
20463;DHT22;10390;53.566;9.980;2023-06-22T12:37:09;32.70;1.00
20463;DHT22;10390;53.566;9.980;2023-06-22T12:39:35;32.70;1.00
20463;DHT22;10390;53.566;9.980;2023-06-22T12:42:01;32.70;1.00
20463;DHT22;10390;53.566;9.980;2023-06-22T12:44:26;32.70;1.00
20463;DHT22;10390;53.566;9.980;2023-06-22T12:46:52;32.70;1.00
20463;DHT22;10390;53.566;9.980;2023-06-22T12:49:18;32.70;1.00
20463;DHT22;10390;53.566;9.980;2023-06-22T12:51:45;32.70;1.00
20463;DHT22;10390;53.566;9.980;2023-06-22T12:54:11;32.70;1.00
20463;DHT22;10390;53.566;9.980;2023-06-22T12:56:37;32.70;1.00
20463;DHT22;10390;53.566;9.980;2023-06-22T12:59:04;32.70;1.00
20463;DHT22;10390;53.566;9.980;2023-06-22T13:01:30;32.70;1.00
20463;DHT22;10390;53.566;9.980;2023-06-22T13:03:57;32.70;1.00
20463;DHT22;10390;53.566;9.980;2023-06-22T13:06:23;32.70;1.00
20463;DHT22;10390;53.566;9.980;2023-06-22T13:08:49;32.70;1.00
20463;DHT22;10390;53.566;9.980;2023-06-22T13:11:15;32.70;1.00
20463;DHT22;10390;53.566;9.980;2023-06-22T13:13:40;32.70;1.00
20463;DHT22;10390;53.566;9.980;2023-06-22T13:16:07;32.70;1.00
20463;DHT22;10390;53.566;9.980;2023-06-22T13:18:33;32.70;1.00
20463;DHT22;10390;53.566;9.980;2023-06-22T13:21:01;32.70;1.00
20463;DHT22;10390;53.566;9.980;2023-06-22T13:23:27;32.70;1.00
20463;DHT22;10390;53.566;9.980;2023-06-22T13:25:52;32.70;1.00
20463;DHT22;10390;53.566;9.980;2023-06-22T13:28:18;32.70;1.00
20463;DHT22;10390;53.566;9.980;2023-06-22T13:30:44;32.70;1.00
20463;DHT22;10390;53.566;9.980;2023-06-22T13:33:15;32.80;1.00
20463;DHT22;10390;53.566;9.980;2023-06-22T13:35:41;32.70;1.00
20463;DHT22;10390;53.566;9.980;2023-06-22T13:38:09;32.70;1.00
20463;DHT22;10390;53.566;9.980;2023-06-22T13:40:36;32.70;1.00
20463;DHT22;10390;53.566;9.980;2023-06-22T13:43:03;32.80;1.00
20463;DHT22;10390;53.566;9.980;2023-06-22T13:45:29;32.70;1.00
20463;DHT22;10390;53.566;9.980;2023-06-22T13:47:55;32.70;1.00
20463;DHT22;10390;53.566;9.980;2023-06-22T13:50:20;32.70;1.00
20463;DHT22;10390;53.566;9.980;2023-06-22T13:52:46;32.70;1.00
20463;DHT22;10390;53.566;9.980;2023-06-22T13:55:11;32.80;1.00
20463;DHT22;10390;53.566;9.980;2023-06-22T13:57:39;32.70;1.00
20463;DHT22;10390;53.566;9.980;2023-06-22T14:00:05;32.70;1.00
20463;DHT22;10390;53.566;9.980;2023-06-22T14:02:31;32.70;1.00
20463;DHT22;10390;53.566;9.980;2023-06-22T14:04:57;32.70;1.00
20463;DHT22;10390;53.566;9.980;2023-06-22T14:07:22;32.70;1.00
20463;DHT22;10390;53.566;9.980;2023-06-22T14:09:52;32.80;1.00
20463;DHT22;10390;53.566;9.980;2023-06-22T14:12:17;32.80;1.00
20463;DHT22;10390;53.566;9.980;2023-06-22T14:14:43;32.80;1.00
20463;DHT22;10390;53.566;9.980;2023-06-22T14:17:09;32.80;1.00
20463;DHT22;10390;53.566;9.980;2023-06-22T14:19:35;32.80;1.00
20463;DHT22;10390;53.566;9.980;2023-06-22T14:22:01;32.80;1.00
20463;DHT22;10390;53.566;9.980;2023-06-22T14:24:27;32.70;1.00
20463;DHT22;10390;53.566;9.980;2023-06-22T14:26:53;32.80;1.00
20463;DHT22;10390;53.566;9.980;2023-06-22T14:29:19;32.80;1.00
20463;DHT22;10390;53.566;9.980;2023-06-22T14:31:48;32.80;1.00
20463;DHT22;10390;53.566;9.980;2023-06-22T14:34:14;32.70;1.00
20463;DHT22;10390;53.566;9.980;2023-06-22T14:36:40;32.70;1.00
20463;DHT22;10390;53.566;9.980;2023-06-22T14:39:06;32.80;1.00
20463;DHT22;10390;53.566;9.980;2023-06-22T14:41:32;32.80;1.00
20463;DHT22;10390;53.566;9.980;2023-06-22T14:43:58;32.80;1.00
20463;DHT22;10390;53.566;9.980;2023-06-22T14:46:24;32.80;1.00
20463;DHT22;10390;53.566;9.980;2023-06-22T14:48:49;32.80;1.00
20463;DHT22;10390;53.566;9.980;2023-06-22T14:51:15;32.80;1.00
20463;DHT22;10390;53.566;9.980;2023-06-22T14:53:41;32.80;1.00
20463;DHT22;10390;53.566;9.980;2023-06-22T14:56:07;32.80;1.00
20463;DHT22;10390;53.566;9.980;2023-06-22T14:58:33;32.80;1.00
20463;DHT22;10390;53.566;9.980;2023-06-22T15:01:03;32.80;1.00
20463;DHT22;10390;53.566;9.980;2023-06-22T15:03:30;32.80;1.00
20463;DHT22;10390;53.566;9.980;2023-06-22T15:05:58;32.80;1.00
20463;DHT22;10390;53.566;9.980;2023-06-22T15:08:24;32.80;1.00
20463;DHT22;10390;53.566;9.980;2023-06-22T15:10:51;32.80;1.00
20463;DHT22;10390;53.566;9.980;2023-06-22T15:13:17;32.80;1.00
20463;DHT22;10390;53.566;9.980;2023-06-22T15:15:43;32.80;1.00
20463;DHT22;10390;53.566;9.980;2023-06-22T15:18:09;32.80;1.00
20463;DHT22;10390;53.566;9.980;2023-06-22T15:20:35;32.80;1.00
20463;DHT22;10390;53.566;9.980;2023-06-22T15:23:01;32.80;1.00
20463;DHT22;10390;53.566;9.980;2023-06-22T15:25:26;32.80;1.00
20463;DHT22;10390;53.566;9.980;2023-06-22T15:27:52;32.80;1.00
20463;DHT22;10390;53.566;9.980;2023-06-22T15:30:17;32.80;1.00
20463;DHT22;10390;53.566;9.980;2023-06-22T15:32:44;32.80;1.00
20463;DHT22;10390;53.566;9.980;2023-06-22T15:35:10;32.80;1.00
20463;DHT22;10390;53.566;9.980;2023-06-22T15:37:36;32.80;1.00
20463;DHT22;10390;53.566;9.980;2023-06-22T15:40:03;32.80;1.00
20463;DHT22;10390;53.566;9.980;2023-06-22T15:42:29;32.80;1.00
20463;DHT22;10390;53.566;9.980;2023-06-22T15:44:55;32.80;1.00
20463;DHT22;10390;53.566;9.980;2023-06-22T15:47:20;32.80;1.00